sensor_id;sensor_type;location;lat;lon;timestamp;temperature;humidity
11501;DHT22;5807;51.606;7.624;2022-08-03T00:02:18;18.40;99.90
11501;DHT22;5807;51.606;7.624;2022-08-03T00:04:45;18.40;99.90
11501;DHT22;5807;51.606;7.624;2022-08-03T00:07:12;18.40;99.90
11501;DHT22;5807;51.606;7.624;2022-08-03T00:09:39;18.40;99.90
11501;DHT22;5807;51.606;7.624;2022-08-03T00:12:06;18.40;99.90
11501;DHT22;5807;51.606;7.624;2022-08-03T00:14:33;18.30;99.90
11501;DHT22;5807;51.606;7.624;2022-08-03T00:17:02;18.30;99.90
11501;DHT22;5807;51.606;7.624;2022-08-03T00:19:29;18.40;99.90
11501;DHT22;5807;51.606;7.624;2022-08-03T00:21:55;18.30;99.90
11501;DHT22;5807;51.606;7.624;2022-08-03T00:24:22;18.40;99.90
11501;DHT22;5807;51.606;7.624;2022-08-03T00:26:49;18.30;99.90
11501;DHT22;5807;51.606;7.624;2022-08-03T00:29:16;18.30;99.90
11501;DHT22;5807;51.606;7.624;2022-08-03T00:31:43;18.30;99.90
11501;DHT22;5807;51.606;7.624;2022-08-03T00:34:11;18.30;99.90
11501;DHT22;5807;51.606;7.624;2022-08-03T00:36:38;18.50;99.90
11501;DHT22;5807;51.606;7.624;2022-08-03T00:39:05;18.50;99.90
11501;DHT22;5807;51.606;7.624;2022-08-03T00:41:32;18.60;99.90
11501;DHT22;5807;51.606;7.624;2022-08-03T00:43:59;18.40;99.90
11501;DHT22;5807;51.606;7.624;2022-08-03T00:46:26;18.50;99.90
11501;DHT22;5807;51.606;7.624;2022-08-03T00:48:53;18.40;99.90
11501;DHT22;5807;51.606;7.624;2022-08-03T00:51:21;18.40;99.90
11501;DHT22;5807;51.606;7.624;2022-08-03T00:53:49;17.80;99.90
11501;DHT22;5807;51.606;7.624;2022-08-03T00:56:16;18.40;99.90
11501;DHT22;5807;51.606;7.624;2022-08-03T00:58:44;18.30;99.90
11501;DHT22;5807;51.606;7.624;2022-08-03T01:01:12;18.40;99.90
11501;DHT22;5807;51.606;7.624;2022-08-03T01:03:42;18.40;99.90
11501;DHT22;5807;51.606;7.624;2022-08-03T01:06:16;18.50;99.90
11501;DHT22;5807;51.606;7.624;2022-08-03T01:08:50;18.50;99.90
11501;DHT22;5807;51.606;7.624;2022-08-03T01:11:26;18.50;99.90
11501;DHT22;5807;51.606;7.624;2022-08-03T01:14:02;18.50;99.90
11501;DHT22;5807;51.606;7.624;2022-08-03T01:16:34;18.40;99.90
11501;DHT22;5807;51.606;7.624;2022-08-03T01:19:17;18.40;99.90
11501;DHT22;5807;51.606;7.624;2022-08-03T01:21:56;18.40;99.90
11501;DHT22;5807;51.606;7.624;2022-08-03T01:24:36;18.30;99.90
11501;DHT22;5807;51.606;7.624;2022-08-03T01:27:08;18.30;99.90
11501;DHT22;5807;51.606;7.624;2022-08-03T01:29:57;18.30;99.90
11501;DHT22;5807;51.606;7.624;2022-08-03T01:32:33;18.30;99.90
11501;DHT22;5807;51.606;7.624;2022-08-03T01:35:03;18.20;99.90
11501;DHT22;5807;51.606;7.624;2022-08-03T01:37:36;18.20;99.90
11501;DHT22;5807;51.606;7.624;2022-08-03T01:40:05;18.20;99.90
11501;DHT22;5807;51.606;7.624;2022-08-03T01:42:33;18.20;99.90
11501;DHT22;5807;51.606;7.624;2022-08-03T01:45:04;18.20;99.90
11501;DHT22;5807;51.606;7.624;2022-08-03T01:47:31;18.10;99.90
11501;DHT22;5807;51.606;7.624;2022-08-03T01:49:59;18.10;99.90
11501;DHT22;5807;51.606;7.624;2022-08-03T01:52:28;18.10;99.90
11501;DHT22;5807;51.606;7.624;2022-08-03T01:54:56;18.10;99.90
11501;DHT22;5807;51.606;7.624;2022-08-03T01:57:24;18.10;99.90
11501;DHT22;5807;51.606;7.624;2022-08-03T01:59:55;18.10;99.90
11501;DHT22;5807;51.606;7.624;2022-08-03T02:02:24;18.10;99.90
11501;DHT22;5807;51.606;7.624;2022-08-03T02:04:54;18.10;99.90
11501;DHT22;5807;51.606;7.624;2022-08-03T02:07:23;18.00;99.90
11501;DHT22;5807;51.606;7.624;2022-08-03T02:09:52;17.90;99.90
11501;DHT22;5807;51.606;7.624;2022-08-03T02:12:21;17.90;99.90
11501;DHT22;5807;51.606;7.624;2022-08-03T02:14:50;17.90;99.90
11501;DHT22;5807;51.606;7.624;2022-08-03T02:17:18;17.90;99.90
11501;DHT22;5807;51.606;7.624;2022-08-03T02:19:47;17.80;99.90
11501;DHT22;5807;51.606;7.624;2022-08-03T02:22:16;17.70;99.90
11501;DHT22;5807;51.606;7.624;2022-08-03T02:24:43;17.70;99.90
11501;DHT22;5807;51.606;7.624;2022-08-03T02:27:17;17.60;99.90
11501;DHT22;5807;51.606;7.624;2022-08-03T02:29:48;17.70;99.90
11501;DHT22;5807;51.606;7.624;2022-08-03T02:32:19;17.70;99.90
11501;DHT22;5807;51.606;7.624;2022-08-03T02:34:50;17.60;99.90
11501;DHT22;5807;51.606;7.624;2022-08-03T02:37:19;17.60;99.90
11501;DHT22;5807;51.606;7.624;2022-08-03T02:42:54;17.60;99.90
11501;DHT22;5807;51.606;7.624;2022-08-03T02:45:23;17.50;99.90
11501;DHT22;5807;51.606;7.624;2022-08-03T02:47:52;17.50;99.90
11501;DHT22;5807;51.606;7.624;2022-08-03T02:50:22;17.50;99.90
11501;DHT22;5807;51.606;7.624;2022-08-03T02:52:51;17.50;99.90
11501;DHT22;5807;51.606;7.624;2022-08-03T02:55:19;17.40;99.90
11501;DHT22;5807;51.606;7.624;2022-08-03T02:57:47;17.40;99.90
11501;DHT22;5807;51.606;7.624;2022-08-03T03:00:15;17.40;99.90
11501;DHT22;5807;51.606;7.624;2022-08-03T03:02:42;17.30;99.90
11501;DHT22;5807;51.606;7.624;2022-08-03T03:05:10;17.40;99.90
11501;DHT22;5807;51.606;7.624;2022-08-03T03:07:39;17.40;99.90
11501;DHT22;5807;51.606;7.624;2022-08-03T03:10:07;17.30;99.90
11501;DHT22;5807;51.606;7.624;2022-08-03T03:12:35;17.30;99.90
11501;DHT22;5807;51.606;7.624;2022-08-03T03:15:03;17.30;99.90
11501;DHT22;5807;51.606;7.624;2022-08-03T03:17:32;17.30;99.90
11501;DHT22;5807;51.606;7.624;2022-08-03T03:19:59;16.90;99.90
11501;DHT22;5807;51.606;7.624;2022-08-03T03:22:27;17.20;99.90
11501;DHT22;5807;51.606;7.624;2022-08-03T03:24:56;17.30;99.90
11501;DHT22;5807;51.606;7.624;2022-08-03T03:27:23;17.30;99.90
11501;DHT22;5807;51.606;7.624;2022-08-03T03:29:51;17.20;99.90
11501;DHT22;5807;51.606;7.624;2022-08-03T03:32:18;17.20;99.90
11501;DHT22;5807;51.606;7.624;2022-08-03T03:34:45;17.10;99.90
11501;DHT22;5807;51.606;7.624;2022-08-03T03:37:13;17.20;99.90
11501;DHT22;5807;51.606;7.624;2022-08-03T03:39:40;17.40;99.90
11501;DHT22;5807;51.606;7.624;2022-08-03T03:42:08;17.30;99.90
11501;DHT22;5807;51.606;7.624;2022-08-03T03:44:35;17.30;99.90
11501;DHT22;5807;51.606;7.624;2022-08-03T03:47:02;17.20;99.90
11501;DHT22;5807;51.606;7.624;2022-08-03T03:49:30;17.30;99.90
11501;DHT22;5807;51.606;7.624;2022-08-03T03:51:57;17.40;99.90
11501;DHT22;5807;51.606;7.624;2022-08-03T03:54:24;17.30;99.90
11501;DHT22;5807;51.606;7.624;2022-08-03T03:56:51;17.30;99.90
11501;DHT22;5807;51.606;7.624;2022-08-03T03:59:19;17.30;99.90
11501;DHT22;5807;51.606;7.624;2022-08-03T04:01:46;17.30;99.90
11501;DHT22;5807;51.606;7.624;2022-08-03T04:04:13;17.30;99.90
11501;DHT22;5807;51.606;7.624;2022-08-03T04:06:57;17.30;99.90
11501;DHT22;5807;51.606;7.624;2022-08-03T04:09:42;17.20;99.90
11501;DHT22;5807;51.606;7.624;2022-08-03T04:12:29;17.20;99.90
11501;DHT22;5807;51.606;7.624;2022-08-03T04:15:00;17.20;99.90
11501;DHT22;5807;51.606;7.624;2022-08-03T04:17:29;17.10;99.90
11501;DHT22;5807;51.606;7.624;2022-08-03T04:19:56;16.90;99.90
11501;DHT22;5807;51.606;7.624;2022-08-03T04:22:26;17.20;99.90
11501;DHT22;5807;51.606;7.624;2022-08-03T04:24:59;17.20;99.90
11501;DHT22;5807;51.606;7.624;2022-08-03T04:27:30;17.20;99.90
11501;DHT22;5807;51.606;7.624;2022-08-03T04:30:02;17.20;99.90
11501;DHT22;5807;51.606;7.624;2022-08-03T04:32:30;17.20;99.90
11501;DHT22;5807;51.606;7.624;2022-08-03T04:34:57;17.20;99.90
11501;DHT22;5807;51.606;7.624;2022-08-03T04:37:32;17.50;99.90
11501;DHT22;5807;51.606;7.624;2022-08-03T04:40:02;17.20;99.90
11501;DHT22;5807;51.606;7.624;2022-08-03T04:42:32;17.20;99.90
11501;DHT22;5807;51.606;7.624;2022-08-03T04:45:02;17.20;99.90
11501;DHT22;5807;51.606;7.624;2022-08-03T04:47:31;17.30;99.90
11501;DHT22;5807;51.606;7.624;2022-08-03T04:50:00;17.30;99.90
11501;DHT22;5807;51.606;7.624;2022-08-03T04:52:27;17.40;99.90
11501;DHT22;5807;51.606;7.624;2022-08-03T04:54:54;17.50;99.90
11501;DHT22;5807;51.606;7.624;2022-08-03T04:57:21;17.60;99.90
11501;DHT22;5807;51.606;7.624;2022-08-03T04:59:48;17.70;99.90
11501;DHT22;5807;51.606;7.624;2022-08-03T05:02:18;17.90;99.90
11501;DHT22;5807;51.606;7.624;2022-08-03T05:04:45;17.90;99.90
11501;DHT22;5807;51.606;7.624;2022-08-03T05:07:13;18.20;99.90
11501;DHT22;5807;51.606;7.624;2022-08-03T05:09:40;18.30;99.90
11501;DHT22;5807;51.606;7.624;2022-08-03T05:12:07;18.50;99.90
11501;DHT22;5807;51.606;7.624;2022-08-03T05:14:34;18.60;99.90
11501;DHT22;5807;51.606;7.624;2022-08-03T05:17:02;18.80;99.90
11501;DHT22;5807;51.606;7.624;2022-08-03T05:19:31;18.90;99.90
11501;DHT22;5807;51.606;7.624;2022-08-03T05:21:58;18.90;99.90
11501;DHT22;5807;51.606;7.624;2022-08-03T05:24:25;19.00;99.90
11501;DHT22;5807;51.606;7.624;2022-08-03T05:26:52;19.10;99.90
11501;DHT22;5807;51.606;7.624;2022-08-03T05:29:19;19.20;99.90
11501;DHT22;5807;51.606;7.624;2022-08-03T05:31:46;19.30;99.90
11501;DHT22;5807;51.606;7.624;2022-08-03T05:34:13;19.40;99.90
11501;DHT22;5807;51.606;7.624;2022-08-03T05:36:41;19.40;99.90
11501;DHT22;5807;51.606;7.624;2022-08-03T05:39:08;19.50;99.90
11501;DHT22;5807;51.606;7.624;2022-08-03T05:41:35;19.50;99.90
11501;DHT22;5807;51.606;7.624;2022-08-03T05:44:02;19.70;99.90
11501;DHT22;5807;51.606;7.624;2022-08-03T05:46:28;19.80;99.90
11501;DHT22;5807;51.606;7.624;2022-08-03T05:48:55;19.90;99.90
11501;DHT22;5807;51.606;7.624;2022-08-03T05:51:22;19.80;99.90
11501;DHT22;5807;51.606;7.624;2022-08-03T05:53:50;20.00;99.90
11501;DHT22;5807;51.606;7.624;2022-08-03T05:56:21;20.40;99.90
11501;DHT22;5807;51.606;7.624;2022-08-03T05:58:49;20.50;99.90
11501;DHT22;5807;51.606;7.624;2022-08-03T06:01:17;20.80;99.90
11501;DHT22;5807;51.606;7.624;2022-08-03T06:03:46;21.20;99.90
11501;DHT22;5807;51.606;7.624;2022-08-03T06:06:13;21.40;99.90
11501;DHT22;5807;51.606;7.624;2022-08-03T06:08:41;21.60;99.90
11501;DHT22;5807;51.606;7.624;2022-08-03T06:11:09;21.90;99.90
11501;DHT22;5807;51.606;7.624;2022-08-03T06:13:36;22.10;99.90
11501;DHT22;5807;51.606;7.624;2022-08-03T06:16:04;22.30;99.90
11501;DHT22;5807;51.606;7.624;2022-08-03T06:18:31;22.70;99.90
11501;DHT22;5807;51.606;7.624;2022-08-03T06:20:58;22.60;99.90
11501;DHT22;5807;51.606;7.624;2022-08-03T06:23:24;22.90;99.90
11501;DHT22;5807;51.606;7.624;2022-08-03T06:25:51;23.20;99.90
11501;DHT22;5807;51.606;7.624;2022-08-03T06:28:20;23.50;99.90
11501;DHT22;5807;51.606;7.624;2022-08-03T06:30:46;23.70;99.90
11501;DHT22;5807;51.606;7.624;2022-08-03T06:33:13;23.90;99.90
11501;DHT22;5807;51.606;7.624;2022-08-03T06:35:41;24.10;99.90
11501;DHT22;5807;51.606;7.624;2022-08-03T06:38:08;24.30;99.90
11501;DHT22;5807;51.606;7.624;2022-08-03T06:40:35;24.40;99.90
11501;DHT22;5807;51.606;7.624;2022-08-03T06:43:05;24.60;99.90
11501;DHT22;5807;51.606;7.624;2022-08-03T06:45:33;24.80;99.90
11501;DHT22;5807;51.606;7.624;2022-08-03T06:48:02;25.20;99.90
11501;DHT22;5807;51.606;7.624;2022-08-03T06:50:29;25.50;99.90
11501;DHT22;5807;51.606;7.624;2022-08-03T06:52:56;25.30;99.90
11501;DHT22;5807;51.606;7.624;2022-08-03T06:55:23;25.40;99.90
11501;DHT22;5807;51.606;7.624;2022-08-03T06:57:51;25.50;99.90
11501;DHT22;5807;51.606;7.624;2022-08-03T07:00:17;25.70;99.90
11501;DHT22;5807;51.606;7.624;2022-08-03T07:02:46;25.90;99.90
11501;DHT22;5807;51.606;7.624;2022-08-03T07:05:13;26.00;99.90
11501;DHT22;5807;51.606;7.624;2022-08-03T07:10:08;26.20;99.90
11501;DHT22;5807;51.606;7.624;2022-08-03T07:12:36;26.50;99.90
11501;DHT22;5807;51.606;7.624;2022-08-03T07:15:05;26.80;99.90
11501;DHT22;5807;51.606;7.624;2022-08-03T07:17:33;27.10;99.90
11501;DHT22;5807;51.606;7.624;2022-08-03T07:20:04;27.40;99.90
11501;DHT22;5807;51.606;7.624;2022-08-03T07:22:32;27.50;99.90
11501;DHT22;5807;51.606;7.624;2022-08-03T07:24:59;27.80;99.90
11501;DHT22;5807;51.606;7.624;2022-08-03T07:27:27;27.80;99.90
11501;DHT22;5807;51.606;7.624;2022-08-03T07:32:23;28.10;99.90
11501;DHT22;5807;51.606;7.624;2022-08-03T07:34:50;28.40;99.90
11501;DHT22;5807;51.606;7.624;2022-08-03T07:37:18;28.60;99.90
11501;DHT22;5807;51.606;7.624;2022-08-03T07:39:45;28.70;99.90
11501;DHT22;5807;51.606;7.624;2022-08-03T07:45:15;28.90;99.90
11501;DHT22;5807;51.606;7.624;2022-08-03T07:47:42;28.80;99.90
11501;DHT22;5807;51.606;7.624;2022-08-03T07:50:09;28.40;99.90
11501;DHT22;5807;51.606;7.624;2022-08-03T07:52:38;28.20;99.90
11501;DHT22;5807;51.606;7.624;2022-08-03T07:55:14;28.20;99.90
11501;DHT22;5807;51.606;7.624;2022-08-03T08:00:13;28.30;99.90
11501;DHT22;5807;51.606;7.624;2022-08-03T08:02:40;28.40;99.90
11501;DHT22;5807;51.606;7.624;2022-08-03T08:05:08;28.30;99.90
11501;DHT22;5807;51.606;7.624;2022-08-03T08:07:37;28.20;99.90
11501;DHT22;5807;51.606;7.624;2022-08-03T08:10:06;28.30;99.90
11501;DHT22;5807;51.606;7.624;2022-08-03T08:19:56;29.30;98.70
11501;DHT22;5807;51.606;7.624;2022-08-03T08:22:23;29.40;98.90
11501;DHT22;5807;51.606;7.624;2022-08-03T08:24:51;29.60;98.00
11501;DHT22;5807;51.606;7.624;2022-08-03T08:27:18;29.90;99.20
11501;DHT22;5807;51.606;7.624;2022-08-03T08:29:45;30.50;95.70
11501;DHT22;5807;51.606;7.624;2022-08-03T08:32:11;31.70;97.50
11501;DHT22;5807;51.606;7.624;2022-08-03T08:37:07;30.70;96.00
11501;DHT22;5807;51.606;7.624;2022-08-03T08:47:07;31.10;95.70
11501;DHT22;5807;51.606;7.624;2022-08-03T08:49:36;31.10;95.80
11501;DHT22;5807;51.606;7.624;2022-08-03T08:52:19;31.50;92.50
11501;DHT22;5807;51.606;7.624;2022-08-03T08:54:50;31.50;92.60
11501;DHT22;5807;51.606;7.624;2022-08-03T08:57:20;31.70;90.80
11501;DHT22;5807;51.606;7.624;2022-08-03T08:59:50;31.70;90.20
11501;DHT22;5807;51.606;7.624;2022-08-03T09:05:09;31.80;90.00
11501;DHT22;5807;51.606;7.624;2022-08-03T09:10:09;31.70;87.80
11501;DHT22;5807;51.606;7.624;2022-08-03T09:12:42;31.80;87.90
11501;DHT22;5807;51.606;7.624;2022-08-03T09:15:17;31.80;87.40
11501;DHT22;5807;51.606;7.624;2022-08-03T09:17:44;31.80;86.90
11501;DHT22;5807;51.606;7.624;2022-08-03T09:20:12;31.80;88.20
11501;DHT22;5807;51.606;7.624;2022-08-03T09:22:52;32.10;89.70
11501;DHT22;5807;51.606;7.624;2022-08-03T09:25:26;32.30;88.60
11501;DHT22;5807;51.606;7.624;2022-08-03T09:28:06;32.30;84.00
11501;DHT22;5807;51.606;7.624;2022-08-03T09:30:35;32.60;82.80
11501;DHT22;5807;51.606;7.624;2022-08-03T09:33:05;32.20;80.70
11501;DHT22;5807;51.606;7.624;2022-08-03T09:35:32;32.20;81.70
11501;DHT22;5807;51.606;7.624;2022-08-03T09:38:12;32.10;81.00
11501;DHT22;5807;51.606;7.624;2022-08-03T09:43:09;32.40;82.10
11501;DHT22;5807;51.606;7.624;2022-08-03T09:45:36;32.60;82.10
11501;DHT22;5807;51.606;7.624;2022-08-03T09:48:20;32.80;83.80
11501;DHT22;5807;51.606;7.624;2022-08-03T09:50:56;33.10;78.10
11501;DHT22;5807;51.606;7.624;2022-08-03T09:53:24;33.40;80.80
11501;DHT22;5807;51.606;7.624;2022-08-03T09:55:53;33.30;79.30
11501;DHT22;5807;51.606;7.624;2022-08-03T09:58:23;33.30;82.20
11501;DHT22;5807;51.606;7.624;2022-08-03T10:00:56;33.20;76.40
11501;DHT22;5807;51.606;7.624;2022-08-03T10:05:51;33.00;74.40
11501;DHT22;5807;51.606;7.624;2022-08-03T10:08:18;33.00;80.10
11501;DHT22;5807;51.606;7.624;2022-08-03T10:10:47;33.20;73.90
11501;DHT22;5807;51.606;7.624;2022-08-03T10:13:16;33.10;73.40
11501;DHT22;5807;51.606;7.624;2022-08-03T10:18:12;33.10;76.50
11501;DHT22;5807;51.606;7.624;2022-08-03T10:20:44;33.20;74.10
11501;DHT22;5807;51.606;7.624;2022-08-03T10:23:19;33.20;74.50
11501;DHT22;5807;51.606;7.624;2022-08-03T10:34:14;33.60;71.10
11501;DHT22;5807;51.606;7.624;2022-08-03T10:36:52;33.50;67.60
11501;DHT22;5807;51.606;7.624;2022-08-03T10:42:40;34.30;71.00
11501;DHT22;5807;51.606;7.624;2022-08-03T10:45:27;34.00;67.60
11501;DHT22;5807;51.606;7.624;2022-08-03T10:50:41;33.90;68.20
11501;DHT22;5807;51.606;7.624;2022-08-03T10:57:05;33.80;68.30
11501;DHT22;5807;51.606;7.624;2022-08-03T11:03:00;33.40;68.60
11501;DHT22;5807;51.606;7.624;2022-08-03T11:05:40;33.00;69.40
11501;DHT22;5807;51.606;7.624;2022-08-03T11:08:27;33.00;70.40
11501;DHT22;5807;51.606;7.624;2022-08-03T11:11:26;33.40;67.20
11501;DHT22;5807;51.606;7.624;2022-08-03T11:14:08;33.80;64.90
11501;DHT22;5807;51.606;7.624;2022-08-03T11:16:48;34.00;70.00
11501;DHT22;5807;51.606;7.624;2022-08-03T11:29:56;33.70;65.50
11501;DHT22;5807;51.606;7.624;2022-08-03T11:35:33;34.20;67.30
11501;DHT22;5807;51.606;7.624;2022-08-03T11:38:03;34.70;66.20
11501;DHT22;5807;51.606;7.624;2022-08-03T11:40:37;34.60;65.90
11501;DHT22;5807;51.606;7.624;2022-08-03T11:43:06;34.50;64.50
11501;DHT22;5807;51.606;7.624;2022-08-03T11:45:36;34.50;62.50
11501;DHT22;5807;51.606;7.624;2022-08-03T11:48:15;34.80;63.80
11501;DHT22;5807;51.606;7.624;2022-08-03T11:53:14;34.90;62.90
11501;DHT22;5807;51.606;7.624;2022-08-03T11:55:43;35.00;63.00
11501;DHT22;5807;51.606;7.624;2022-08-03T11:58:17;35.10;63.40
11501;DHT22;5807;51.606;7.624;2022-08-03T12:00:46;35.30;66.10
11501;DHT22;5807;51.606;7.624;2022-08-03T12:03:15;35.50;59.40
11501;DHT22;5807;51.606;7.624;2022-08-03T12:05:45;36.10;58.70
11501;DHT22;5807;51.606;7.624;2022-08-03T12:08:14;36.10;59.10
11501;DHT22;5807;51.606;7.624;2022-08-03T12:10:47;35.70;59.50
11501;DHT22;5807;51.606;7.624;2022-08-03T12:13:16;35.60;60.00
11501;DHT22;5807;51.606;7.624;2022-08-03T12:15:43;35.60;60.00
11501;DHT22;5807;51.606;7.624;2022-08-03T12:18:18;35.70;58.80
11501;DHT22;5807;51.606;7.624;2022-08-03T12:20:46;35.80;58.10
11501;DHT22;5807;51.606;7.624;2022-08-03T12:23:14;35.80;58.40
11501;DHT22;5807;51.606;7.624;2022-08-03T12:25:42;36.10;60.00
11501;DHT22;5807;51.606;7.624;2022-08-03T12:28:15;36.20;57.40
11501;DHT22;5807;51.606;7.624;2022-08-03T12:30:44;36.30;58.80
11501;DHT22;5807;51.606;7.624;2022-08-03T12:33:13;36.30;57.30
11501;DHT22;5807;51.606;7.624;2022-08-03T12:35:41;35.90;57.70
11501;DHT22;5807;51.606;7.624;2022-08-03T12:38:09;35.70;58.80
11501;DHT22;5807;51.606;7.624;2022-08-03T12:40:36;35.60;60.10
11501;DHT22;5807;51.606;7.624;2022-08-03T12:43:10;35.60;58.80
11501;DHT22;5807;51.606;7.624;2022-08-03T12:45:37;35.60;58.70
11501;DHT22;5807;51.606;7.624;2022-08-03T12:48:08;35.70;60.30
11501;DHT22;5807;51.606;7.624;2022-08-03T12:50:36;35.70;60.30
11501;DHT22;5807;51.606;7.624;2022-08-03T12:53:06;36.00;57.30
11501;DHT22;5807;51.606;7.624;2022-08-03T12:55:34;35.90;58.40
11501;DHT22;5807;51.606;7.624;2022-08-03T12:58:02;35.70;61.40
11501;DHT22;5807;51.606;7.624;2022-08-03T13:00:29;35.70;59.10
11501;DHT22;5807;51.606;7.624;2022-08-03T13:03:01;35.50;59.90
11501;DHT22;5807;51.606;7.624;2022-08-03T13:05:46;35.50;59.50
11501;DHT22;5807;51.606;7.624;2022-08-03T13:08:22;35.70;60.20
11501;DHT22;5807;51.606;7.624;2022-08-03T13:10:50;35.90;58.80
11501;DHT22;5807;51.606;7.624;2022-08-03T13:13:17;35.90;57.60
11501;DHT22;5807;51.606;7.624;2022-08-03T13:15:45;35.40;58.20
11501;DHT22;5807;51.606;7.624;2022-08-03T13:18:11;35.20;61.10
11501;DHT22;5807;51.606;7.624;2022-08-03T13:20:38;35.40;60.50
11501;DHT22;5807;51.606;7.624;2022-08-03T13:23:05;35.60;59.60
11501;DHT22;5807;51.606;7.624;2022-08-03T13:28:01;35.50;58.10
11501;DHT22;5807;51.606;7.624;2022-08-03T13:30:29;35.20;58.10
11501;DHT22;5807;51.606;7.624;2022-08-03T13:32:56;34.60;60.10
11501;DHT22;5807;51.606;7.624;2022-08-03T13:35:25;34.50;60.80
11501;DHT22;5807;51.606;7.624;2022-08-03T13:37:52;34.60;61.30
11501;DHT22;5807;51.606;7.624;2022-08-03T13:40:19;34.50;62.50
11501;DHT22;5807;51.606;7.624;2022-08-03T13:42:48;34.30;59.90
11501;DHT22;5807;51.606;7.624;2022-08-03T13:45:15;34.00;58.80
11501;DHT22;5807;51.606;7.624;2022-08-03T13:47:42;34.20;61.40
11501;DHT22;5807;51.606;7.624;2022-08-03T13:50:09;34.50;62.10
11501;DHT22;5807;51.606;7.624;2022-08-03T13:52:36;34.60;60.90
11501;DHT22;5807;51.606;7.624;2022-08-03T13:55:04;34.70;59.70
11501;DHT22;5807;51.606;7.624;2022-08-03T13:57:32;34.80;61.00
11501;DHT22;5807;51.606;7.624;2022-08-03T14:00:00;35.00;59.80
11501;DHT22;5807;51.606;7.624;2022-08-03T14:02:27;35.20;59.60
11501;DHT22;5807;51.606;7.624;2022-08-03T14:04:54;35.00;57.40
11501;DHT22;5807;51.606;7.624;2022-08-03T14:07:21;34.90;60.00
11501;DHT22;5807;51.606;7.624;2022-08-03T14:09:48;34.70;62.50
11501;DHT22;5807;51.606;7.624;2022-08-03T14:12:15;34.70;63.60
11501;DHT22;5807;51.606;7.624;2022-08-03T14:14:42;34.70;58.80
11501;DHT22;5807;51.606;7.624;2022-08-03T14:17:10;35.00;61.10
11501;DHT22;5807;51.606;7.624;2022-08-03T14:19:37;35.30;60.50
11501;DHT22;5807;51.606;7.624;2022-08-03T14:22:04;35.30;59.30
11501;DHT22;5807;51.606;7.624;2022-08-03T14:24:31;35.30;61.30
11501;DHT22;5807;51.606;7.624;2022-08-03T14:26:57;35.30;58.40
11501;DHT22;5807;51.606;7.624;2022-08-03T14:29:25;35.20;62.90
11501;DHT22;5807;51.606;7.624;2022-08-03T14:31:52;35.10;58.20
11501;DHT22;5807;51.606;7.624;2022-08-03T14:40:00;34.60;58.60
11501;DHT22;5807;51.606;7.624;2022-08-03T14:42:27;34.50;60.30
11501;DHT22;5807;51.606;7.624;2022-08-03T14:44:56;34.40;59.90
11501;DHT22;5807;51.606;7.624;2022-08-03T14:47:23;34.50;60.00
11501;DHT22;5807;51.606;7.624;2022-08-03T14:52:19;34.50;62.30
11501;DHT22;5807;51.606;7.624;2022-08-03T14:54:46;34.70;60.50
11501;DHT22;5807;51.606;7.624;2022-08-03T14:57:13;34.80;58.60
11501;DHT22;5807;51.606;7.624;2022-08-03T14:59:50;34.50;58.80
11501;DHT22;5807;51.606;7.624;2022-08-03T15:02:17;34.50;59.80
11501;DHT22;5807;51.606;7.624;2022-08-03T15:04:44;34.50;60.80
11501;DHT22;5807;51.606;7.624;2022-08-03T15:07:13;34.60;60.80
11501;DHT22;5807;51.606;7.624;2022-08-03T15:09:40;34.20;59.50
11501;DHT22;5807;51.606;7.624;2022-08-03T15:12:10;33.90;60.50
11501;DHT22;5807;51.606;7.624;2022-08-03T15:14:40;33.80;59.50
11501;DHT22;5807;51.606;7.624;2022-08-03T15:17:07;33.50;60.80
11501;DHT22;5807;51.606;7.624;2022-08-03T15:19:34;33.30;64.80
11501;DHT22;5807;51.606;7.624;2022-08-03T15:22:01;33.10;63.60
11501;DHT22;5807;51.606;7.624;2022-08-03T15:24:30;33.00;62.10
11501;DHT22;5807;51.606;7.624;2022-08-03T15:26:57;32.80;63.30
11501;DHT22;5807;51.606;7.624;2022-08-03T15:29:24;32.70;61.70
11501;DHT22;5807;51.606;7.624;2022-08-03T15:31:52;32.50;62.00
11501;DHT22;5807;51.606;7.624;2022-08-03T15:34:19;32.40;63.20
11501;DHT22;5807;51.606;7.624;2022-08-03T15:36:46;32.30;64.20
11501;DHT22;5807;51.606;7.624;2022-08-03T15:39:13;32.20;66.00
11501;DHT22;5807;51.606;7.624;2022-08-03T15:41:41;32.10;65.50
11501;DHT22;5807;51.606;7.624;2022-08-03T15:44:08;32.00;65.90
11501;DHT22;5807;51.606;7.624;2022-08-03T15:46:35;31.90;67.20
11501;DHT22;5807;51.606;7.624;2022-08-03T15:49:02;31.80;66.50
11501;DHT22;5807;51.606;7.624;2022-08-03T15:52:05;31.80;67.10
11501;DHT22;5807;51.606;7.624;2022-08-03T15:54:32;31.90;65.70
11501;DHT22;5807;51.606;7.624;2022-08-03T15:57:00;32.00;64.60
11501;DHT22;5807;51.606;7.624;2022-08-03T15:59:39;32.00;65.20
11501;DHT22;5807;51.606;7.624;2022-08-03T16:02:13;32.10;64.70
11501;DHT22;5807;51.606;7.624;2022-08-03T16:09:40;32.50;65.40
11501;DHT22;5807;51.606;7.624;2022-08-03T16:14:54;33.20;63.80
11501;DHT22;5807;51.606;7.624;2022-08-03T16:17:22;33.20;64.60
11501;DHT22;5807;51.606;7.624;2022-08-03T16:19:49;33.10;61.10
11501;DHT22;5807;51.606;7.624;2022-08-03T16:22:16;32.90;62.80
11501;DHT22;5807;51.606;7.624;2022-08-03T16:24:51;32.80;63.20
11501;DHT22;5807;51.606;7.624;2022-08-03T16:27:20;32.80;61.90
11501;DHT22;5807;51.606;7.624;2022-08-03T16:29:48;32.70;62.20
11501;DHT22;5807;51.606;7.624;2022-08-03T16:32:15;32.80;62.50
11501;DHT22;5807;51.606;7.624;2022-08-03T16:34:42;32.90;62.80
11501;DHT22;5807;51.606;7.624;2022-08-03T16:37:09;33.00;62.00
11501;DHT22;5807;51.606;7.624;2022-08-03T16:39:36;33.30;61.20
11501;DHT22;5807;51.606;7.624;2022-08-03T16:42:03;33.40;63.30
11501;DHT22;5807;51.606;7.624;2022-08-03T16:44:31;33.50;61.10
11501;DHT22;5807;51.606;7.624;2022-08-03T16:46:59;33.50;61.00
11501;DHT22;5807;51.606;7.624;2022-08-03T16:49:27;33.50;60.20
11501;DHT22;5807;51.606;7.624;2022-08-03T16:51:53;33.40;60.00
11501;DHT22;5807;51.606;7.624;2022-08-03T16:54:20;33.00;61.00
11501;DHT22;5807;51.606;7.624;2022-08-03T16:56:47;32.70;62.90
11501;DHT22;5807;51.606;7.624;2022-08-03T16:59:14;32.40;64.20
11501;DHT22;5807;51.606;7.624;2022-08-03T17:01:43;32.40;62.70
11501;DHT22;5807;51.606;7.624;2022-08-03T17:04:12;32.50;65.20
11501;DHT22;5807;51.606;7.624;2022-08-03T17:06:41;32.60;63.20
11501;DHT22;5807;51.606;7.624;2022-08-03T17:09:09;32.60;62.30
11501;DHT22;5807;51.606;7.624;2022-08-03T17:11:40;32.70;65.40
11501;DHT22;5807;51.606;7.624;2022-08-03T17:14:07;32.80;64.10
11501;DHT22;5807;51.606;7.624;2022-08-03T17:16:34;32.80;64.60
11501;DHT22;5807;51.606;7.624;2022-08-03T17:19:05;32.70;64.50
11501;DHT22;5807;51.606;7.624;2022-08-03T17:21:34;32.50;66.80
11501;DHT22;5807;51.606;7.624;2022-08-03T17:24:08;32.50;64.70
11501;DHT22;5807;51.606;7.624;2022-08-03T17:26:39;32.50;62.90
11501;DHT22;5807;51.606;7.624;2022-08-03T17:29:09;32.50;64.10
11501;DHT22;5807;51.606;7.624;2022-08-03T17:31:39;32.50;63.20
11501;DHT22;5807;51.606;7.624;2022-08-03T17:34:07;32.60;62.80
11501;DHT22;5807;51.606;7.624;2022-08-03T17:36:34;32.50;64.30
11501;DHT22;5807;51.606;7.624;2022-08-03T17:39:03;32.50;62.40